Time;durP1;ratioP1;P1;durP2;ratioP2;P2;SDS_P1;SDS_P2;PMS_P1;PMS_P2;Temp;Humidity;BMP_temperature;BMP_pressure;BME280_temperature;BME280_humidity;BME280_pressure;Samples;Min_cycle;Max_cycle;Signal;HPM_P1;HPM_P2
2022/01/12 00:02:23;;;;;;;252.40;167.40;;;;;;;-0.76;75.03;102503.32;110854;1252;22295;-81
2022/01/12 00:04:54;;;;;;;253.10;166.90;;;;;;;-0.75;75.15;102500.70;110921;1252;22383;-81
2022/01/12 00:07:31;;;;;;;260.80;167.70;;;;;;;-0.75;75.04;102499.30;110952;1252;22013;-81
2022/01/12 00:10:03;;;;;;;256.00;166.10;;;;;;;-0.75;75.00;102498.45;110448;1255;23852;-80
2022/01/12 00:12:36;;;;;;;248.90;168.40;;;;;;;-0.74;75.14;102500.33;110595;1255;21976;-80
2022/01/12 00:15:15;;;;;;;253.50;170.20;;;;;;;-0.72;75.16;102506.84;110406;1255;22856;-80
2022/01/12 00:17:59;;;;;;;248.20;169.70;;;;;;;-0.73;74.90;102508.25;110509;1255;22972;-80
2022/01/12 00:20:55;;;;;;;258.30;165.10;;;;;;;-0.76;74.86;102504.02;110334;1255;22074;-79
2022/01/12 00:23:27;;;;;;;262.90;174.10;;;;;;;-0.82;74.70;102498.46;109733;1260;21976;-80
2022/01/12 00:26:06;;;;;;;263.70;173.20;;;;;;;-0.84;74.96;102500.09;109855;1260;21996;-80
2022/01/12 00:34:50;;;;;;;243.40;163.80;;;;;;;-0.83;75.22;102505.77;109999;1257;22995;-79
2022/01/12 00:37:21;;;;;;;237.70;162.00;;;;;;;-0.86;75.06;102500.30;110134;1257;22783;-80
2022/01/12 00:40:06;;;;;;;234.90;161.40;;;;;;;-0.88;75.12;102502.79;110401;1257;21985;-79
2022/01/12 00:42:45;;;;;;;226.40;161.00;;;;;;;-0.87;75.19;102500.88;110740;1254;22083;-79
2022/01/12 00:45:17;;;;;;;245.90;164.40;;;;;;;-0.89;75.06;102498.31;110725;1255;21965;-81
2022/01/12 00:47:58;;;;;;;230.70;160.50;;;;;;;-0.92;75.06;102501.86;110260;1257;22087;-81
2022/01/12 00:50:28;;;;;;;239.90;165.10;;;;;;;-0.90;75.34;102501.46;109748;1264;22105;-82
2022/01/12 00:53:04;;;;;;;232.30;163.30;;;;;;;-0.85;75.42;102506.35;109432;1266;22360;-81
2022/01/12 00:55:45;;;;;;;238.20;164.50;;;;;;;-0.80;75.51;102502.07;109450;1267;21986;-81
2022/01/12 00:58:20;;;;;;;294.90;197.40;;;;;;;-0.78;75.35;102500.44;109593;1264;21971;-81
2022/01/12 01:00:54;;;;;;;299.90;199.90;;;;;;;-0.81;75.01;102499.47;109513;1264;23702;-81
2022/01/12 01:03:29;;;;;;;303.50;203.60;;;;;;;-0.88;74.89;102507.64;109493;1263;21985;-82
2022/01/12 01:06:10;;;;;;;229.70;165.30;;;;;;;-0.90;74.97;102505.45;109948;1260;22016;-82
2022/01/12 01:08:43;;;;;;;241.60;162.20;;;;;;;-0.88;75.23;102509.02;110020;1255;23767;-80
2022/01/12 01:11:15;;;;;;;234.60;159.30;;;;;;;-0.87;75.27;102509.52;110468;1255;21974;-79
2022/01/12 01:13:58;;;;;;;221.00;152.80;;;;;;;-0.83;75.42;102510.62;110555;1255;23024;-80
2022/01/12 01:28:22;;;;;;;204.40;141.00;;;;;;;-0.80;75.39;102506.36;110655;1256;22890;-79
2022/01/12 01:30:55;;;;;;;208.20;146.30;;;;;;;-0.77;75.39;102508.20;110566;1256;21990;-80
2022/01/12 01:33:32;;;;;;;183.70;133.20;;;;;;;-0.76;75.15;102499.52;110433;1256;21967;-80
2022/01/12 01:36:03;;;;;;;188.70;133.30;;;;;;;-0.77;74.98;102499.02;110128;1260;21975;-80
2022/01/12 01:38:39;;;;;;;187.30;135.90;;;;;;;-0.76;75.05;102500.02;109989;1260;22114;-80
2022/01/12 01:41:14;;;;;;;188.60;136.20;;;;;;;-0.74;74.93;102499.43;109872;1264;22066;-80
2022/01/12 01:44:19;;;;;;;193.80;136.60;;;;;;;-0.78;74.68;102499.74;109092;1270;21961;-80
2022/01/12 01:55:37;;;;;;;190.60;135.50;;;;;;;-0.85;74.69;102498.02;109672;1263;24379;-80
2022/01/12 01:58:14;;;;;;;181.90;128.60;;;;;;;-0.87;74.47;102492.91;109558;1263;23592;-81
2022/01/12 02:00:48;;;;;;;187.10;130.60;;;;;;;-0.93;74.27;102498.41;110778;1254;23993;-81
2022/01/12 02:03:34;;;;;;;177.20;127.90;;;;;;;-0.93;74.61;102500.50;111581;1247;22748;-81
2022/01/12 02:06:08;;;;;;;173.40;126.90;;;;;;;-0.91;74.58;102498.38;110911;1251;23576;-82
2022/01/12 02:08:45;;;;;;;179.00;126.80;;;;;;;-0.91;74.67;102497.84;111005;1252;21970;-82
2022/01/12 02:11:43;;;;;;;183.40;129.50;;;;;;;-0.89;74.59;102503.52;110632;1255;21984;-83
2022/01/12 02:14:23;;;;;;;187.40;130.20;;;;;;;-0.89;74.57;102507.98;110323;1257;22568;-81
2022/01/12 02:17:08;;;;;;;183.30;132.90;;;;;;;-0.90;74.43;102507.69;110582;1255;21974;-79
2022/01/12 02:35:14;;;;;;;193.60;134.40;;;;;;;-0.89;74.45;102499.87;109405;1263;21978;-79
2022/01/12 02:40:22;;;;;;;181.40;129.70;;;;;;;-0.96;74.24;102498.67;110446;1255;22217;-81
2022/01/12 02:43:11;;;;;;;198.40;135.70;;;;;;;-0.99;74.23;102496.34;109659;1264;23479;-81
2022/01/12 02:50:42;;;;;;;196.80;133.40;;;;;;;-1.01;74.40;102496.02;109421;1267;22053;-81
2022/01/12 02:53:38;;;;;;;204.00;139.50;;;;;;;-1.01;74.33;102495.18;109685;1264;23628;-83
2022/01/12 02:54:39;;;;;;;207.50;139.70;;;;;;;-1.03;74.32;102492.99;109696;1264;22004;-83
2022/01/12 02:57:15;;;;;;;205.10;137.20;;;;;;;-1.04;74.38;102491.80;109523;1264;21986;-82
2022/01/12 03:00:04;;;;;;;217.20;144.60;;;;;;;-1.05;74.27;102491.83;109383;1261;22011;-81
2022/01/12 03:02:52;;;;;;;226.10;150.70;;;;;;;-1.08;74.18;102484.80;110970;1252;22101;-84
2022/01/12 03:05:45;;;;;;;218.60;150.80;;;;;;;-1.10;74.24;102480.88;110337;1258;22112;-83
2022/01/12 03:08:19;;;;;;;;;;;;;;;-1.09;74.27;102490.02;110631;1255;23010;-81
2022/01/12 03:10:57;;;;;;;240.00;152.40;;;;;;;-1.16;74.36;102491.44;110274;1257;21978;-82
2022/01/12 03:13:35;;;;;;;244.80;159.50;;;;;;;-1.17;74.50;102489.38;110310;1258;22015;-80
2022/01/12 03:16:17;;;;;;;240.70;161.90;;;;;;;-1.14;74.54;102490.84;110320;1257;21962;-80
2022/01/12 03:18:53;;;;;;;257.70;172.60;;;;;;;-1.11;74.63;102488.02;110277;1258;22022;-80
2022/01/12 03:21:34;;;;;;;271.70;175.80;;;;;;;-1.09;74.63;102490.72;109517;1264;22524;-81
2022/01/12 03:24:10;;;;;;;268.70;179.10;;;;;;;-1.08;74.58;102490.01;109480;1264;22042;-80
2022/01/12 03:26:43;;;;;;;286.90;182.30;;;;;;;-1.07;74.53;102490.86;109139;1269;21990;-81
2022/01/12 03:29:17;;;;;;;288.10;185.10;;;;;;;-1.07;74.43;102490.52;109319;1261;22061;-80
2022/01/12 03:31:48;;;;;;;285.10;183.50;;;;;;;-1.08;74.42;102490.52;110253;1257;23119;-80
2022/01/12 03:34:33;;;;;;;285.60;184.00;;;;;;;-1.09;74.49;102491.40;110091;1260;21986;-81
2022/01/12 03:39:52;;;;;;;291.30;184.10;;;;;;;-1.15;74.13;102484.84;110370;1252;22260;-81
2022/01/12 03:42:24;;;;;;;291.40;186.40;;;;;;;-1.17;74.28;102485.58;110564;1257;22993;-80
2022/01/12 03:44:54;;;;;;;294.80;183.40;;;;;;;-1.16;74.41;102487.80;110359;1253;22463;-80
2022/01/12 03:47:35;;;;;;;288.30;178.00;;;;;;;-1.17;74.35;102486.95;110877;1253;22009;-80
2022/01/12 03:50:10;;;;;;;288.40;178.90;;;;;;;-1.19;74.35;102487.52;110857;1253;21979;-83
2022/01/12 03:52:52;;;;;;;289.20;178.60;;;;;;;-1.21;74.39;102479.80;110777;1253;21994;-82
2022/01/12 03:55:25;;;;;;;294.80;183.00;;;;;;;-1.21;74.37;102477.04;110728;1253;21969;-82
2022/01/12 03:57:58;;;;;;;293.90;180.80;;;;;;;-1.20;74.53;102475.45;110310;1259;22159;-82
2022/01/12 04:00:29;;;;;;;283.30;180.10;;;;;;;-1.19;74.56;102473.50;110212;1255;21976;-83
2022/01/12 04:03:03;;;;;;;286.50;176.80;;;;;;;-1.19;74.48;102470.23;110663;1253;23049;-82
2022/01/12 04:08:18;;;;;;;283.70;176.70;;;;;;;-1.19;74.48;102471.97;110884;1254;23067;-83
2022/01/12 04:08:40;;;;;;;288.00;176.90;;;;;;;-1.19;74.52;102470.55;110984;1252;24295;-83
2022/01/12 04:11:15;;;;;;;279.50;177.20;;;;;;;-1.21;74.38;102472.52;110845;1255;22027;-82
2022/01/12 04:13:48;;;;;;;277.50;169.90;;;;;;;-1.20;74.48;102476.84;110872;1252;21981;-82
2022/01/12 04:16:24;;;;;;;269.10;165.40;;;;;;;-1.20;74.56;102478.56;110910;1249;23674;-82
2022/01/12 04:19:01;;;;;;;274.30;164.00;;;;;;;-1.18;74.65;102482.66;111241;1248;23533;-82
2022/01/12 04:21:40;;;;;;;251.50;154.10;;;;;;;-1.18;74.58;102479.20;111277;1247;21962;-82
2022/01/12 04:24:13;;;;;;;273.60;161.30;;;;;;;-1.19;74.57;102477.48;111179;1249;21974;-83
2022/01/12 04:26:44;;;;;;;269.10;158.50;;;;;;;-1.17;74.66;102487.30;111122;1250;23594;-80
2022/01/12 04:29:27;;;;;;;260.50;153.10;;;;;;;-1.16;74.75;102482.23;111085;1250;22756;-81
2022/01/12 04:32:05;;;;;;;258.70;159.60;;;;;;;-1.15;74.73;102481.55;111168;1249;21969;-81
2022/01/12 04:34:37;;;;;;;258.70;158.30;;;;;;;-1.16;74.61;102482.26;111072;1250;21963;-81
2022/01/12 04:37:10;;;;;;;253.80;153.40;;;;;;;-1.18;74.58;102480.58;111065;1249;22455;-82
2022/01/12 04:39:44;;;;;;;251.80;151.60;;;;;;;-1.17;74.55;102477.46;111299;1250;21972;-78
2022/01/12 04:42:15;;;;;;;258.90;153.70;;;;;;;-1.16;74.66;102477.24;110891;1249;23694;-81
2022/01/12 04:44:48;;;;;;;266.70;153.10;;;;;;;-1.16;74.66;102481.04;111179;1249;22977;-81
2022/01/12 04:47:40;;;;;;;252.70;151.80;;;;;;;-1.17;74.57;102479.16;110990;1250;21963;-81
2022/01/12 04:50:12;;;;;;;265.40;156.60;;;;;;;-1.20;74.52;102481.66;111186;1249;22009;-80
2022/01/12 04:52:48;;;;;;;255.60;152.20;;;;;;;-1.23;74.55;102485.04;110884;1253;24278;-81
2022/01/12 04:55:24;;;;;;;258.70;155.20;;;;;;;-1.23;74.68;102479.50;109977;1258;23098;-81
2022/01/12 04:57:55;;;;;;;258.20;154.30;;;;;;;-1.23;74.62;102477.41;110295;1261;23062;-81
2022/01/12 05:00:29;;;;;;;292.70;177.20;;;;;;;-1.24;74.60;102470.18;110129;1258;22078;-80
2022/01/12 05:09:11;;;;;;;256.20;159.00;;;;;;;-1.41;74.60;102466.30;109536;1266;21978;-81
2022/01/12 05:14:39;;;;;;;273.40;170.20;;;;;;;-1.41;74.59;102475.46;110144;1258;21945;-82
2022/01/12 05:17:15;;;;;;;282.10;190.20;;;;;;;-1.43;74.77;102476.54;110435;1255;21977;-80
2022/01/12 05:19:45;;;;;;;263.00;163.60;;;;;;;-1.41;74.92;102475.96;110479;1255;23714;-81
2022/01/12 05:22:15;;;;;;;244.30;151.60;;;;;;;-1.40;74.74;102479.23;110656;1255;21969;-81
2022/01/12 05:24:48;;;;;;;240.90;152.30;;;;;;;-1.44;74.69;102482.80;110732;1253;21997;-80
2022/01/12 05:27:35;;;;;;;250.70;157.70;;;;;;;-1.47;74.63;102485.63;110759;1252;21969;-80
2022/01/12 05:30:09;;;;;;;244.80;151.00;;;;;;;-1.49;74.77;102483.10;110713;1253;21990;-81
2022/01/12 05:32:43;;;;;;;256.80;154.20;;;;;;;-1.51;74.86;102475.20;110796;1253;21983;-80
2022/01/12 05:35:17;;;;;;;249.00;155.10;;;;;;;-1.55;74.74;102477.18;110758;1253;22029;-80
2022/01/12 05:37:50;;;;;;;264.70;158.30;;;;;;;-1.56;74.86;102483.78;110728;1252;24313;-80
2022/01/12 05:40:23;;;;;;;272.00;160.20;;;;;;;-1.53;75.19;102488.04;110764;1253;22769;-80
2022/01/12 05:42:55;;;;;;;259.60;162.60;;;;;;;-1.50;75.27;102490.04;110867;1249;22071;-80
2022/01/12 05:45:37;;;;;;;278.60;163.40;;;;;;;-1.47;75.19;102497.90;111127;1247;21976;-79
2022/01/12 05:50:42;;;;;;;269.60;160.30;;;;;;;-1.43;75.19;102515.08;111370;1247;22987;-82
2022/01/12 05:53:41;;;;;;;253.60;152.70;;;;;;;-1.42;75.18;102517.84;110621;1255;23667;-80
2022/01/12 05:56:20;;;;;;;248.50;151.40;;;;;;;-1.41;75.15;102514.71;110677;1255;21966;-80
2022/01/12 05:58:53;;;;;;;257.40;155.30;;;;;;;-1.39;75.16;102513.95;109937;1261;22577;-81
2022/01/12 06:01:24;;;;;;;263.50;158.00;;;;;;;-1.35;75.32;102518.19;109543;1264;22527;-80
2022/01/12 06:04:00;;;;;;;255.40;158.80;;;;;;;-1.36;75.13;102518.02;109880;1264;22002;-81
2022/01/12 06:06:50;;;;;;;270.70;163.00;;;;;;;-1.38;74.99;102519.82;109856;1263;22054;-81
2022/01/12 06:09:22;;;;;;;243.90;151.80;;;;;;;-1.37;75.19;102519.98;109208;1268;21998;-81
2022/01/12 06:11:55;;;;;;;240.60;150.10;;;;;;;-1.37;75.17;102527.56;109625;1263;22948;-81
2022/01/12 06:14:39;;;;;;;241.50;144.60;;;;;;;-1.40;75.04;102531.77;109732;1261;21996;-80
2022/01/12 06:17:14;;;;;;;244.80;146.10;;;;;;;-1.40;75.13;102527.65;109895;1256;21970;-82
2022/01/12 06:19:49;;;;;;;231.70;140.10;;;;;;;-1.39;75.16;102523.13;110730;1250;22056;-80
2022/01/12 06:22:35;;;;;;;229.00;140.80;;;;;;;-1.39;75.22;102526.39;110908;1250;21975;-80
2022/01/12 06:25:09;;;;;;;225.00;141.10;;;;;;;-1.37;75.39;102532.06;110392;1257;22990;-80
2022/01/12 06:27:52;;;;;;;228.20;141.30;;;;;;;-1.37;75.17;102529.99;109659;1264;23103;-80
2022/01/12 06:32:59;;;;;;;237.00;147.00;;;;;;;-1.39;75.24;102516.56;109214;1267;23698;-81
2022/01/12 06:35:33;;;;;;;240.10;141.40;;;;;;;-1.36;75.27;102514.92;109102;1270;24316;-80
2022/01/12 06:38:11;;;;;;;216.00;135.90;;;;;;;-1.36;75.05;102510.94;108994;1270;22376;-80
2022/01/12 06:40:47;;;;;;;219.90;135.80;;;;;;;-1.42;74.76;102510.40;108988;1269;22007;-81
2022/01/12 06:43:39;;;;;;;220.80;136.40;;;;;;;-1.48;74.86;102513.83;109347;1264;22032;-81
2022/01/12 06:46:10;;;;;;;234.30;136.90;;;;;;;-1.49;74.89;102516.27;109532;1264;22775;-80
2022/01/12 06:48:44;;;;;;;215.00;133.80;;;;;;;-1.53;74.80;102516.21;110134;1255;21980;-80
2022/01/12 06:51:14;;;;;;;216.90;135.90;;;;;;;-1.57;74.83;102522.35;110435;1256;22070;-81
2022/01/12 06:53:44;;;;;;;212.60;134.00;;;;;;;-1.57;75.08;102524.76;110368;1253;23663;-80
2022/01/12 06:56:17;;;;;;;229.80;140.40;;;;;;;-1.55;75.05;102528.52;111009;1256;23585;-82
2022/01/12 06:58:57;;;;;;;221.60;136.70;;;;;;;-1.57;75.08;102523.55;110765;1256;22005;-85
2022/01/12 07:01:28;;;;;;;212.30;133.40;;;;;;;-1.57;75.10;102525.98;110845;1256;21969;-81
2022/01/12 07:03:59;;;;;;;218.60;136.90;;;;;;;-1.55;75.26;102525.58;110826;1250;22062;-82
2022/01/12 07:06:29;;;;;;;208.90;135.40;;;;;;;-1.52;75.09;102530.88;110994;1252;22078;-80
2022/01/12 07:09:04;;;;;;;205.70;132.60;;;;;;;-1.52;75.04;102541.23;111059;1250;21960;-81
2022/01/12 07:11:53;;;;;;;216.10;136.20;;;;;;;-1.53;74.97;102540.40;111116;1250;21976;-81
2022/01/12 07:14:26;;;;;;;210.10;134.20;;;;;;;-1.54;74.98;102535.06;110988;1247;21960;-81
2022/01/12 07:16:57;;;;;;;212.50;138.30;;;;;;;-1.56;74.94;102531.48;111037;1253;23660;-81
2022/01/12 07:19:30;;;;;;;217.20;139.00;;;;;;;-1.56;75.06;102537.02;110899;1253;23072;-81
2022/01/12 07:22:02;;;;;;;191.70;131.90;;;;;;;-1.55;75.10;102542.88;110843;1251;22983;-83
2022/01/12 07:24:33;;;;;;;209.50;137.40;;;;;;;-1.57;74.90;102542.03;111005;1252;23686;-81
2022/01/12 07:27:06;;;;;;;222.90;138.30;;;;;;;-1.58;74.99;102543.63;110894;1252;21978;-81
2022/01/12 07:29:36;;;;;;;216.50;143.80;;;;;;;-1.62;74.81;102549.25;110421;1255;21973;-81
2022/01/12 07:32:06;;;;;;;214.00;145.70;;;;;;;-1.63;74.99;102550.48;110745;1255;23685;-80
2022/01/12 07:34:36;;;;;;;225.80;150.30;;;;;;;-1.62;75.20;102550.27;110018;1258;22763;-82
2022/01/12 07:37:06;;;;;;;221.60;148.50;;;;;;;-1.52;75.86;102553.14;110392;1258;22089;-82
2022/01/12 07:39:36;;;;;;;227.30;149.60;;;;;;;-1.35;76.38;102556.38;110531;1258;23585;-82
2022/01/12 07:42:12;;;;;;;224.60;151.60;;;;;;;-1.20;76.50;102557.05;109765;1264;21996;-83
2022/01/12 07:44:43;;;;;;;222.80;146.40;;;;;;;-1.06;76.38;102561.38;109262;1270;22018;-83
2022/01/12 07:47:14;;;;;;;219.20;148.20;;;;;;;-1.02;75.83;102560.91;109405;1263;23783;-82
2022/01/12 07:49:44;;;;;;;230.10;147.50;;;;;;;-0.99;75.55;102557.39;109665;1264;21987;-81
2022/01/12 07:52:17;;;;;;;220.70;151.50;;;;;;;-0.97;75.29;102565.11;109886;1263;21992;-81
2022/01/12 07:54:46;;;;;;;;;;;;;;;-0.96;75.05;102558.86;109830;1264;23746;-83
2022/01/12 07:57:18;;;;;;;210.60;140.60;;;;;;;-1.02;74.98;102547.27;109316;1266;21979;-85
2022/01/12 07:59:48;;;;;;;227.50;151.30;;;;;;;-1.03;74.96;102545.38;109689;1255;22017;-80
2022/01/12 08:02:19;;;;;;;230.70;160.00;;;;;;;-1.01;74.89;102543.94;110759;1253;21973;-80
2022/01/12 08:04:52;;;;;;;217.40;150.10;;;;;;;-0.99;74.79;102539.40;110219;1258;21978;-83
2022/01/12 08:07:25;;;;;;;224.30;152.70;;;;;;;-0.98;74.52;102541.97;110349;1258;22015;-83
2022/01/12 08:09:57;;;;;;;;;;;;;;;-0.96;74.57;102548.48;109940;1257;23143;-80
2022/01/12 08:12:26;;;;;;;223.00;145.70;;;;;;;-0.97;74.69;102554.92;110281;1257;23708;-79
2022/01/12 08:14:57;;;;;;;218.70;152.70;;;;;;;-0.99;74.47;102544.77;110267;1258;22088;-81
2022/01/12 08:17:27;;;;;;;218.40;153.10;;;;;;;-1.00;74.25;102531.81;109624;1264;21988;-78
2022/01/12 08:19:58;;;;;;;214.90;152.60;;;;;;;-1.05;74.02;102532.29;109089;1270;24329;-78
2022/01/12 08:22:29;;;;;;;215.30;148.90;;;;;;;-1.05;74.05;102538.19;109042;1265;22922;-80
2022/01/12 08:25:03;;;;;;;214.50;152.10;;;;;;;-1.09;73.97;102544.50;109279;1267;21979;-82
2022/01/12 08:27:33;;;;;;;213.40;146.60;;;;;;;-1.08;74.15;102543.61;109069;1270;21985;-80
2022/01/12 08:30:07;;;;;;;201.70;146.00;;;;;;;-1.07;74.11;102541.66;109074;1270;22004;-80
2022/01/12 08:32:48;;;;;;;210.50;148.60;;;;;;;-1.05;74.14;102540.43;109005;1273;23809;-82
2022/01/12 08:35:21;;;;;;;220.60;154.90;;;;;;;-1.01;74.35;102540.50;108920;1269;22520;-83
2022/01/12 08:37:57;;;;;;;222.50;156.80;;;;;;;-0.97;74.32;102539.69;109032;1270;22008;-83
2022/01/12 08:40:38;;;;;;;211.40;151.00;;;;;;;-0.90;74.39;102541.59;109032;1273;22350;-86
2022/01/12 08:43:18;;;;;;;203.30;139.70;;;;;;;-0.85;73.97;102533.52;108755;1276;22102;-83
2022/01/12 08:45:47;;;;;;;230.70;154.40;;;;;;;-0.96;73.40;102528.76;109124;1267;22005;-84
2022/01/12 08:48:20;;;;;;;215.60;154.20;;;;;;;-0.98;73.60;102532.44;109502;1267;23730;-83
2022/01/12 08:50:52;;;;;;;228.40;158.50;;;;;;;-0.94;73.61;102521.27;109520;1264;21997;-84
2022/01/12 08:53:25;;;;;;;211.50;147.70;;;;;;;-0.92;73.54;102518.98;110376;1258;22775;-85
2022/01/12 08:55:55;;;;;;;217.60;156.40;;;;;;;-0.84;73.86;102513.23;109557;1263;22308;-81
2022/01/12 08:58:25;;;;;;;234.60;168.60;;;;;;;-0.74;74.12;102518.82;109610;1261;22429;-81
2022/01/12 09:01:00;;;;;;;221.80;158.90;;;;;;;-0.61;74.08;102522.81;109602;1258;21982;-79
2022/01/12 09:03:33;;;;;;;212.40;151.80;;;;;;;-0.55;73.88;102522.30;110072;1260;21977;-81
2022/01/12 09:06:05;;;;;;;216.20;152.80;;;;;;;-0.54;73.46;102522.60;110410;1258;21984;-81
2022/01/12 09:08:42;;;;;;;217.20;155.30;;;;;;;-0.50;73.58;102523.54;109668;1264;21983;-80
2022/01/12 09:11:13;;;;;;;216.50;156.70;;;;;;;-0.39;73.88;102519.41;109291;1270;22005;-80
2022/01/12 09:13:43;;;;;;;225.00;161.30;;;;;;;-0.24;74.12;102529.53;109016;1270;22068;-80
2022/01/12 09:16:20;;;;;;;217.40;154.50;;;;;;;-0.08;74.05;102534.45;109254;1270;22222;-80
2022/01/12 09:18:52;;;;;;;;;;;;;;;0.06;73.78;102523.77;109178;1270;21990;-80
2022/01/12 09:21:24;;;;;;;213.60;150.80;;;;;;;0.10;73.32;102522.29;109115;1270;22098;-80
2022/01/12 09:23:54;;;;;;;215.70;154.10;;;;;;;0.11;72.71;102528.34;109086;1269;22013;-80
2022/01/12 09:26:29;;;;;;;211.20;154.50;;;;;;;0.07;71.94;102528.96;109783;1260;21989;-79
2022/01/12 09:29:01;;;;;;;211.60;152.80;;;;;;;0.02;71.65;102535.35;110158;1254;23740;-79
2022/01/12 09:31:30;;;;;;;224.40;156.50;;;;;;;0.02;71.57;102538.30;110634;1250;21969;-80
2022/01/12 09:34:00;;;;;;;225.60;159.40;;;;;;;0.06;71.58;102537.85;111155;1250;21967;-80
2022/01/12 09:36:32;;;;;;;209.60;152.60;;;;;;;0.07;71.39;102535.72;111187;1250;22117;-80
2022/01/12 09:39:06;;;;;;;208.00;150.10;;;;;;;0.12;71.50;102536.42;111169;1250;23058;-79
2022/01/12 09:41:36;;;;;;;201.30;149.00;;;;;;;0.17;71.46;102536.46;111214;1248;21965;-80
2022/01/12 09:44:06;;;;;;;227.90;168.20;;;;;;;0.21;71.30;102536.16;111090;1248;21972;-80
2022/01/12 09:46:36;;;;;;;224.10;153.00;;;;;;;0.22;71.17;102536.65;110593;1253;22349;-79
2022/01/12 09:49:06;;;;;;;213.20;147.00;;;;;;;0.26;71.16;102534.62;110625;1252;22045;-80
2022/01/12 09:51:36;;;;;;;178.60;130.90;;;;;;;0.29;70.88;102532.11;110099;1256;21976;-80
2022/01/12 09:54:10;;;;;;;172.20;124.30;;;;;;;0.31;70.86;102531.48;110093;1261;21984;-83
2022/01/12 09:56:40;;;;;;;165.50;123.20;;;;;;;0.40;70.98;102529.33;109529;1266;24048;-81
2022/01/12 09:59:11;;;;;;;171.40;123.20;;;;;;;0.45;70.67;102523.44;109091;1267;23627;-81
2022/01/12 10:01:44;;;;;;;166.70;122.20;;;;;;;0.52;70.58;102522.52;109295;1266;23619;-80
2022/01/12 10:04:22;;;;;;;158.80;116.50;;;;;;;0.57;70.15;102513.17;109297;1263;23653;-81
2022/01/12 10:07:13;;;;;;;157.30;117.80;;;;;;;0.51;69.42;102508.52;109645;1262;21982;-79
2022/01/12 10:09:46;;;;;;;158.30;114.70;;;;;;;0.45;69.42;102502.29;109926;1257;21971;-81
2022/01/12 10:12:21;;;;;;;152.30;112.50;;;;;;;0.48;69.51;102504.29;109701;1260;21971;-80
2022/01/12 10:15:00;;;;;;;153.90;116.10;;;;;;;0.52;69.60;102507.80;110180;1254;21978;-80
2022/01/12 10:17:35;;;;;;;147.00;110.60;;;;;;;0.59;69.71;102512.39;110018;1260;22029;-79
2022/01/12 10:20:25;;;;;;;155.20;116.10;;;;;;;0.70;69.94;102521.23;110021;1260;22952;-79
2022/01/12 10:23:02;;;;;;;178.20;129.40;;;;;;;0.81;69.87;102521.56;110068;1261;21984;-80
2022/01/12 10:25:35;;;;;;;166.40;124.20;;;;;;;0.87;69.21;102516.86;110179;1261;21992;-80
2022/01/12 10:28:20;;;;;;;184.50;131.40;;;;;;;0.87;68.84;102501.23;110019;1260;22221;-80
2022/01/12 10:31:03;;;;;;;168.30;119.00;;;;;;;0.87;68.66;102488.22;110006;1260;23037;-81
2022/01/12 10:33:35;;;;;;;156.80;116.20;;;;;;;0.95;69.00;102490.73;109997;1259;22047;-83
2022/01/12 10:36:06;;;;;;;139.90;105.00;;;;;;;1.10;69.23;102489.50;110315;1254;23029;-83
2022/01/12 10:38:36;;;;;;;115.10;88.10;;;;;;;1.23;68.80;102484.52;111156;1248;21980;-81
2022/01/12 10:41:06;;;;;;;137.50;104.00;;;;;;;1.34;68.42;102478.90;111175;1248;21958;-82
2022/01/12 10:43:47;;;;;;;117.60;87.80;;;;;;;1.49;68.37;102476.48;110968;1250;21978;-81
2022/01/12 10:46:19;;;;;;;117.90;88.70;;;;;;;1.69;68.54;102473.11;110859;1255;23047;-81
2022/01/12 10:48:58;;;;;;;;;;;;;;;1.87;68.13;102475.17;110440;1257;21970;-82
2022/01/12 10:51:30;;;;;;;109.60;83.70;;;;;;;1.91;67.39;102469.83;110385;1258;22254;-82
2022/01/12 10:54:04;;;;;;;113.20;88.10;;;;;;;1.93;66.82;102466.29;109447;1265;21987;-81
2022/01/12 10:56:35;;;;;;;100.90;80.20;;;;;;;1.89;65.76;102471.12;109410;1264;22034;-84
2022/01/12 10:59:05;;;;;;;90.10;70.50;;;;;;;1.80;65.20;102468.35;109575;1265;23598;-83
2022/01/12 11:01:40;;;;;;;98.10;74.30;;;;;;;1.72;64.85;102465.53;109522;1263;23696;-84
2022/01/12 11:04:12;;;;;;;102.80;77.50;;;;;;;1.68;64.66;102466.54;109491;1263;22359;-86
2022/01/12 11:06:43;;;;;;;105.30;78.40;;;;;;;1.67;64.66;102461.01;109829;1261;21973;-84
2022/01/12 11:09:15;;;;;;;88.80;68.80;;;;;;;1.70;64.50;102456.90;110083;1260;21980;-84
2022/01/12 11:11:45;;;;;;;88.50;70.10;;;;;;;1.64;63.70;102459.59;110135;1253;22004;-83
2022/01/12 11:14:15;;;;;;;89.90;71.70;;;;;;;1.55;63.64;102463.57;110960;1253;23570;-84
2022/01/12 11:16:46;;;;;;;84.90;66.10;;;;;;;1.54;63.89;102470.90;110992;1253;22025;-84
2022/01/12 11:19:18;;;;;;;89.20;70.80;;;;;;;1.54;63.87;102467.25;111209;1254;22050;-83
2022/01/12 11:22:24;;;;;;;91.80;72.30;;;;;;;1.54;63.76;102467.06;111256;1250;22784;-83
2022/01/12 11:24:55;;;;;;;95.80;73.00;;;;;;;1.52;63.72;102452.22;111850;1250;22979;-83
2022/01/12 11:27:28;;;;;;;94.50;75.40;;;;;;;1.48;63.30;102438.48;110931;1254;22095;-83
2022/01/12 11:29:59;;;;;;;83.20;63.50;;;;;;;1.36;62.61;102435.27;110815;1254;23781;-83
2022/01/12 11:32:32;;;;;;;84.30;62.20;;;;;;;1.25;62.65;102428.39;110777;1254;21987;-83
2022/01/12 11:35:04;;;;;;;82.60;57.30;;;;;;;1.21;62.88;102421.41;110756;1254;281271;-83
2022/01/12 11:37:51;;;;;;;79.70;60.00;;;;;;;1.20;62.79;102414.53;110897;1252;21953;-83
2022/01/12 11:40:39;;;;;;;93.40;68.50;;;;;;;1.17;62.78;102412.20;110754;1254;22096;-84
2022/01/12 11:43:28;;;;;;;96.70;68.70;;;;;;;1.24;63.26;102405.70;110955;1252;22412;-83
2022/01/12 11:46:13;;;;;;;90.70;67.30;;;;;;;1.30;63.10;102404.94;111053;1251;21962;-84
2022/01/12 11:48:52;;;;;;;88.60;68.00;;;;;;;1.30;62.75;102407.90;111873;1248;22454;-83
2022/01/12 11:51:37;;;;;;;102.50;73.20;;;;;;;1.25;62.59;102400.27;111406;1250;22057;-83
2022/01/12 11:54:18;;;;;;;85.10;62.30;;;;;;;1.21;62.49;102397.80;111461;1250;21996;-86
2022/01/12 11:56:59;;;;;;;83.90;61.40;;;;;;;1.14;62.38;102395.64;111345;1248;21948;-82
2022/01/12 11:59:50;;;;;;;87.30;66.80;;;;;;;1.11;62.58;102390.20;111052;1250;21961;-83
2022/01/12 12:02:38;;;;;;;85.90;64.10;;;;;;;1.10;62.70;102388.67;110903;1253;23519;-82
2022/01/12 12:05:22;;;;;;;82.20;63.50;;;;;;;1.06;62.37;102385.36;110349;1258;21989;-80
2022/01/12 12:08:01;;;;;;;93.80;69.20;;;;;;;1.00;62.38;102382.82;110363;1257;21998;-81
2022/01/12 12:10:40;;;;;;;94.60;67.30;;;;;;;0.97;62.24;102381.38;109882;1264;23583;-81
2022/01/12 12:13:11;;;;;;;100.50;75.60;;;;;;;0.95;62.24;102379.35;109195;1264;23612;-81
2022/01/12 12:15:50;;;;;;;99.80;73.60;;;;;;;0.95;62.29;102379.70;109544;1264;21969;-81
2022/01/12 12:18:20;;;;;;;81.30;57.80;;;;;;;0.92;62.03;102383.96;109463;1266;23619;-81
2022/01/12 12:20:53;;;;;;;79.70;57.50;;;;;;;0.87;61.94;102384.84;109768;1264;24385;-80
2022/01/12 12:23:28;;;;;;;68.50;52.40;;;;;;;0.81;61.84;102390.42;109702;1257;22003;-81
2022/01/12 12:26:06;;;;;;;70.60;52.70;;;;;;;0.72;61.81;102393.54;109859;1263;23865;-79
2022/01/12 12:28:39;;;;;;;78.80;59.90;;;;;;;0.64;62.01;102392.96;110094;1258;21978;-80
2022/01/12 12:31:08;;;;;;;78.60;62.00;;;;;;;0.60;62.18;102395.34;110095;1261;23839;-84
2022/01/12 12:33:39;;;;;;;82.20;60.30;;;;;;;0.58;62.27;102396.11;109768;1261;23575;-80
2022/01/12 12:36:12;;;;;;;87.90;62.60;;;;;;;0.58;62.49;102393.67;109632;1262;23621;-81